This is the latest recevied weather packets stored in our database for station/object HG8LXL-2. If no packets are shown the sender has not sent any weather packets the latest 10 day(s).
| Time | Temp. | Humidity | Pressure | Rain* | Wind** | Luminosity | Snow |
|---|---|---|---|---|---|---|---|
| 1777782001 | 12.78° C | 44% | 1018.9 hPa | - | - | - | - |
| 1777781701 | 12.78° C | 44% | 1018.8 hPa | - | - | - | - |
| 1777781401 | 12.22° C | 43% | 1018.7 hPa | - | - | - | - |
| 1777781101 | 12.22° C | 43% | 1018.6 hPa | - | - | - | - |
| 1777780801 | 12.22° C | 42% | 1018.5 hPa | - | - | - | - |
| 1777780501 | 12.22° C | 42% | 1018.6 hPa | - | - | - | - |
| 1777780201 | 12.22° C | 42% | 1018.5 hPa | - | - | - | - |
| 1777779901 | 12.22° C | 41% | 1018.5 hPa | - | - | - | - |
| 1777779600 | 12.22° C | 42% | 1018.5 hPa | - | - | - | - |
| 1777779301 | 12.22° C | 42% | 1018.4 hPa | - | - | - | - |
| 1777779000 | 12.22° C | 41% | 1018.3 hPa | - | - | - | - |
| 1777778700 | 12.22° C | 41% | 1018.3 hPa | - | - | - | - |
| 1777778401 | 12.22° C | 42% | 1018.2 hPa | - | - | - | - |
| 1777778101 | 12.78° C | 43% | 1018.3 hPa | - | - | - | - |
| 1777777801 | 12.22° C | 46% | 1018.2 hPa | - | - | - | - |
| 1777777501 | 12.22° C | 45% | 1018.2 hPa | - | - | - | - |
| 1777777200 | 12.22° C | 46% | 1018.1 hPa | - | - | - | - |
| 1777776901 | 12.22° C | 45% | 1018.1 hPa | - | - | - | - |
| 1777776601 | 13.33° C | 43% | 1018 hPa | - | - | - | - |
| 1777776301 | 12.78° C | 44% | 1017.9 hPa | - | - | - | - |
| 1777776001 | 13.33° C | 43% | 1018 hPa | - | - | - | - |
| 1777775701 | 12.78° C | 43% | 1017.9 hPa | - | - | - | - |
| 1777775401 | 13.33° C | 42% | 1018 hPa | - | - | - | - |
| 1777775100 | 12.78° C | 44% | 1017.9 hPa | - | - | - | - |
| 1777774801 | 13.33° C | 39% | 1017.6 hPa | - | - | - | - |
* Rain since midnight (hover to see other rain measurements)
** Current wind speed in m/s (hover to see current wind gust speed)